CCA424 RKSI-ZBAD
Flight info
| Callsign | CCA424 |
|---|---|
| Flight time | 1h 24m |
| Altitude | 40100 |
| Route | K0895S1220 NOPIK2A NOPIK Y697 AGAVO A591 IKEKA W4 HCH W200 DOVIV W55 DUMAP DUMAP6M |
| Aircraft | A359/H-SDE2E3GHIJ3J4J5LM1ORWXY/LB1D1 |
Departure
| Time | 2026-04-24 12:54 |
|---|---|
| Airport | Incheon International Airport (RKSI) |
Arrival
| Time | 2026-04-24 14:18 |
|---|---|
| Airport | Beijing Daxing International Airport (ZBAD) |
| Time | Latitude | Longitude | Altitude | Speed | Heading |
|---|---|---|---|---|---|
| 2026-04-24 12:31 | 37.46249 | 126.43494 | 39 ft | 0 kts | 275° |
| 2026-04-24 12:44 | 37.46247 | 126.43523 | 28 ft | 4 kts | 275° |
| 2026-04-24 12:44 | 37.46245 | 126.43556 | 35 ft | 4 kts | 272° |
| 2026-04-24 12:44 | 37.46245 | 126.43589 | 35 ft | 4 kts | 266° |
| 2026-04-24 12:44 | 37.46247 | 126.43617 | 35 ft | 4 kts | 244° |
| 2026-04-24 12:45 | 37.46262 | 126.43630 | 34 ft | 4 kts | 169° |
| 2026-04-24 12:45 | 37.46284 | 126.43617 | 37 ft | 4 kts | 146° |
| 2026-04-24 12:45 | 37.46306 | 126.43598 | 37 ft | 4 kts | 145° |
| 2026-04-24 12:45 | 37.46323 | 126.43583 | 37 ft | 0 kts | 145° |
| 2026-04-24 12:49 | 37.46305 | 126.43598 | 37 ft | 12 kts | 145° |
| 2026-04-24 12:49 | 37.46222 | 126.43665 | 39 ft | 8 kts | 164° |
| 2026-04-24 12:49 | 37.46169 | 126.43624 | 39 ft | 14 kts | 226° |
| 2026-04-24 12:49 | 37.46106 | 126.43522 | 39 ft | 16 kts | 237° |
| 2026-04-24 12:50 | 37.46037 | 126.43400 | 39 ft | 18 kts | 234° |
| 2026-04-24 12:50 | 37.45956 | 126.43253 | 39 ft | 21 kts | 233° |
| 2026-04-24 12:50 | 37.45831 | 126.43263 | 39 ft | 20 kts | 147° |
| 2026-04-24 12:50 | 37.45711 | 126.43373 | 39 ft | 23 kts | 144° |
| 2026-04-24 12:51 | 37.45577 | 126.43492 | 37 ft | 25 kts | 145° |
| 2026-04-24 12:51 | 37.45434 | 126.43620 | 39 ft | 26 kts | 146° |
| 2026-04-24 12:51 | 37.45283 | 126.43756 | 39 ft | 28 kts | 143° |
| 2026-04-24 12:51 | 37.45121 | 126.43899 | 39 ft | 29 kts | 146° |
| 2026-04-24 12:52 | 37.44951 | 126.44050 | 39 ft | 31 kts | 144° |
| 2026-04-24 12:52 | 37.44773 | 126.44208 | 39 ft | 32 kts | 145° |
| 2026-04-24 12:52 | 37.44603 | 126.44360 | 39 ft | 19 kts | 146° |
| 2026-04-24 12:52 | 37.44507 | 126.44410 | 39 ft | 14 kts | 191° |
| 2026-04-24 12:53 | 37.44437 | 126.44317 | 39 ft | 16 kts | 234° |
| 2026-04-24 12:53 | 37.44382 | 126.44187 | 39 ft | 18 kts | 271° |
| 2026-04-24 12:53 | 37.44487 | 126.44046 | 39 ft | 44 kts | 325° |
| 2026-04-24 12:53 | 37.44949 | 126.43633 | 39 ft | 116 kts | 325° |
| 2026-04-24 12:54 | 37.45773 | 126.42894 | 118 ft | 168 kts | 323° |
| 2026-04-24 12:54 | 37.46712 | 126.42061 | 945 ft | 163 kts | 323° |
| 2026-04-24 12:54 | 37.47640 | 126.41164 | 1552 ft | 178 kts | 316° |
| 2026-04-24 12:54 | 37.48530 | 126.39913 | 1896 ft | 207 kts | 307° |
| 2026-04-24 12:55 | 37.49470 | 126.38402 | 2389 ft | 228 kts | 306° |
| 2026-04-24 12:55 | 37.50275 | 126.36678 | 3095 ft | 235 kts | 285° |
| 2026-04-24 12:55 | 37.50525 | 126.34587 | 3679 ft | 250 kts | 270° |
| 2026-04-24 12:55 | 37.50562 | 126.32350 | 4356 ft | 260 kts | 269° |
| 2026-04-24 12:56 | 37.50585 | 126.30051 | 5200 ft | 265 kts | 269° |
| 2026-04-24 12:56 | 37.50620 | 126.27714 | 6074 ft | 269 kts | 270° |
| 2026-04-24 12:56 | 37.50666 | 126.25343 | 6983 ft | 272 kts | 271° |
| 2026-04-24 12:56 | 37.50718 | 126.22948 | 7890 ft | 276 kts | 271° |
| 2026-04-24 12:57 | 37.50768 | 126.20517 | 8833 ft | 279 kts | 272° |
| 2026-04-24 12:57 | 37.50529 | 126.18080 | 9773 ft | 285 kts | 253° |
| 2026-04-24 12:57 | 37.49646 | 126.15849 | 10517 ft | 297 kts | 239° |
| 2026-04-24 12:57 | 37.48472 | 126.13587 | 10903 ft | 320 kts | 237° |
| 2026-04-24 12:58 | 37.47183 | 126.11188 | 11322 ft | 340 kts | 237° |
| 2026-04-24 12:58 | 37.45844 | 126.08682 | 12038 ft | 349 kts | 237° |
| 2026-04-24 12:58 | 37.44484 | 126.06116 | 12868 ft | 355 kts | 237° |
| 2026-04-24 12:58 | 37.43106 | 126.03506 | 13689 ft | 361 kts | 237° |
| 2026-04-24 12:59 | 37.41747 | 126.00811 | 14375 ft | 368 kts | 242° |
| 2026-04-24 12:59 | 37.40861 | 125.97798 | 15163 ft | 369 kts | 260° |
| 2026-04-24 12:59 | 37.40639 | 125.94589 | 16023 ft | 369 kts | 269° |
| 2026-04-24 12:59 | 37.40604 | 125.91359 | 16828 ft | 371 kts | 270° |
| 2026-04-24 13:00 | 37.40587 | 125.88097 | 17644 ft | 374 kts | 270° |
| 2026-04-24 13:00 | 37.40564 | 125.84863 | 18446 ft | 376 kts | 270° |
| 2026-04-24 13:00 | 37.40534 | 125.81559 | 19154 ft | 380 kts | 270° |
| 2026-04-24 13:00 | 37.40498 | 125.78220 | 19851 ft | 384 kts | 270° |
| 2026-04-24 13:01 | 37.40458 | 125.74845 | 20561 ft | 388 kts | 270° |
| 2026-04-24 13:01 | 37.40417 | 125.71444 | 21327 ft | 389 kts | 270° |
| 2026-04-24 13:01 | 37.40373 | 125.68030 | 22041 ft | 393 kts | 270° |
| 2026-04-24 13:01 | 37.40328 | 125.64578 | 22738 ft | 397 kts | 270° |
| 2026-04-24 13:02 | 37.40286 | 125.61092 | 23433 ft | 400 kts | 270° |
| 2026-04-24 13:02 | 37.40238 | 125.57581 | 24053 ft | 404 kts | 270° |
| 2026-04-24 13:02 | 37.40188 | 125.54035 | 24634 ft | 407 kts | 270° |
| 2026-04-24 13:02 | 37.40135 | 125.50465 | 25217 ft | 410 kts | 270° |
| 2026-04-24 13:03 | 37.40081 | 125.46923 | 25825 ft | 411 kts | 270° |
| 2026-04-24 13:03 | 37.40026 | 125.43320 | 26417 ft | 414 kts | 270° |
| 2026-04-24 13:03 | 37.39970 | 125.39687 | 26968 ft | 417 kts | 270° |
| 2026-04-24 13:03 | 37.39912 | 125.36023 | 27541 ft | 420 kts | 270° |
| 2026-04-24 13:04 | 37.39853 | 125.32338 | 28101 ft | 423 kts | 270° |
| 2026-04-24 13:04 | 37.39793 | 125.28627 | 28654 ft | 426 kts | 270° |
| 2026-04-24 13:04 | 37.39731 | 125.24892 | 29178 ft | 429 kts | 270° |
| 2026-04-24 13:04 | 37.39670 | 125.21136 | 29742 ft | 431 kts | 270° |
| 2026-04-24 13:05 | 37.39607 | 125.17357 | 30247 ft | 434 kts | 270° |
| 2026-04-24 13:05 | 37.39542 | 125.13557 | 30670 ft | 436 kts | 270° |
| 2026-04-24 13:05 | 37.39473 | 125.09733 | 31107 ft | 438 kts | 269° |
| 2026-04-24 13:05 | 37.39404 | 125.05948 | 31540 ft | 440 kts | 269° |
| 2026-04-24 13:06 | 37.39333 | 125.02092 | 31942 ft | 442 kts | 269° |
| 2026-04-24 13:06 | 37.39260 | 124.98218 | 32318 ft | 445 kts | 269° |
| 2026-04-24 13:06 | 37.39186 | 124.94322 | 32741 ft | 446 kts | 269° |
| 2026-04-24 13:06 | 37.39111 | 124.90422 | 33131 ft | 448 kts | 269° |
| 2026-04-24 13:07 | 37.39034 | 124.86495 | 33487 ft | 450 kts | 269° |
| 2026-04-24 13:07 | 37.38956 | 124.82563 | 33846 ft | 451 kts | 269° |
| 2026-04-24 13:07 | 37.38879 | 124.78611 | 34175 ft | 453 kts | 269° |
| 2026-04-24 13:07 | 37.38797 | 124.74644 | 34464 ft | 455 kts | 269° |
| 2026-04-24 13:08 | 37.38713 | 124.70725 | 34878 ft | 452 kts | 268° |
| 2026-04-24 13:08 | 37.38627 | 124.66791 | 35387 ft | 448 kts | 268° |
| 2026-04-24 13:08 | 37.38541 | 124.62895 | 35848 ft | 445 kts | 268° |
| 2026-04-24 13:09 | 37.38368 | 124.55143 | 36611 ft | 442 kts | 268° |
| 2026-04-24 13:09 | 37.38280 | 124.51283 | 36953 ft | 441 kts | 268° |
| 2026-04-24 13:09 | 37.38100 | 124.47444 | 37321 ft | 440 kts | 263° |
| 2026-04-24 13:09 | 37.37584 | 124.43667 | 37656 ft | 438 kts | 257° |
| 2026-04-24 13:10 | 37.36680 | 124.40008 | 38013 ft | 438 kts | 250° |
| 2026-04-24 13:10 | 37.35406 | 124.36593 | 38334 ft | 438 kts | 243° |
| 2026-04-24 13:10 | 37.33894 | 124.33273 | 38654 ft | 437 kts | 241° |
| 2026-04-24 13:10 | 37.32297 | 124.30028 | 38931 ft | 437 kts | 240° |
| 2026-04-24 13:11 | 37.30660 | 124.26817 | 39148 ft | 436 kts | 239° |
| 2026-04-24 13:11 | 37.29009 | 124.23612 | 39339 ft | 437 kts | 239° |
| 2026-04-24 13:11 | 37.27365 | 124.20414 | 39536 ft | 437 kts | 240° |
| 2026-04-24 13:11 | 37.25726 | 124.17205 | 39693 ft | 436 kts | 240° |
| 2026-04-24 13:12 | 37.24094 | 124.13991 | 39880 ft | 436 kts | 240° |
| 2026-04-24 13:12 | 37.22483 | 124.10833 | 40076 ft | 436 kts | 239° |
| 2026-04-24 13:12 | 37.20811 | 124.07657 | 40204 ft | 437 kts | 239° |
| 2026-04-24 13:12 | 37.19109 | 124.04478 | 40229 ft | 440 kts | 238° |
| 2026-04-24 13:13 | 37.15681 | 123.98111 | 40227 ft | 440 kts | 239° |
| 2026-04-24 13:13 | 37.12338 | 123.91684 | 40228 ft | 440 kts | 239° |
| 2026-04-24 13:14 | 37.09032 | 123.85228 | 40225 ft | 440 kts | 239° |
| 2026-04-24 13:14 | 37.05741 | 123.78829 | 40225 ft | 440 kts | 239° |
| 2026-04-24 13:15 | 37.02412 | 123.72392 | 40225 ft | 440 kts | 239° |
| 2026-04-24 13:15 | 36.99078 | 123.65969 | 40225 ft | 440 kts | 239° |
| 2026-04-24 13:16 | 36.95740 | 123.59548 | 40227 ft | 440 kts | 239° |
| 2026-04-24 13:16 | 36.92418 | 123.53172 | 40227 ft | 441 kts | 239° |
| 2026-04-24 13:17 | 36.89071 | 123.46759 | 40213 ft | 440 kts | 239° |
| 2026-04-24 13:17 | 36.86288 | 123.39998 | 40228 ft | 437 kts | 251° |
| 2026-04-24 13:18 | 36.85067 | 123.32616 | 40227 ft | 436 kts | 266° |
| 2026-04-24 13:18 | 36.85651 | 123.25093 | 40221 ft | 439 kts | 282° |
| 2026-04-24 13:19 | 36.87307 | 123.17789 | 40222 ft | 441 kts | 284° |
| 2026-04-24 13:19 | 36.89128 | 123.10466 | 40225 ft | 442 kts | 284° |
| 2026-04-24 13:20 | 36.90935 | 123.03132 | 40218 ft | 442 kts | 284° |
| 2026-04-24 13:20 | 36.92709 | 122.95780 | 40218 ft | 442 kts | 284° |
| 2026-04-24 13:21 | 36.94453 | 122.88477 | 40231 ft | 442 kts | 284° |
| 2026-04-24 13:21 | 36.96204 | 122.81111 | 40219 ft | 442 kts | 284° |
| 2026-04-24 13:22 | 36.97955 | 122.73735 | 40219 ft | 442 kts | 284° |
| 2026-04-24 13:22 | 36.99701 | 122.66356 | 40217 ft | 442 kts | 284° |
| 2026-04-24 13:23 | 37.01443 | 122.58974 | 40218 ft | 443 kts | 284° |
| 2026-04-24 13:23 | 37.03170 | 122.51632 | 40212 ft | 443 kts | 284° |
| 2026-04-24 13:24 | 37.04904 | 122.44237 | 40214 ft | 443 kts | 284° |
| 2026-04-24 13:24 | 37.06965 | 122.36961 | 40216 ft | 446 kts | 293° |
| 2026-04-24 13:25 | 37.10463 | 122.30486 | 40215 ft | 455 kts | 309° |
| 2026-04-24 13:25 | 37.15101 | 122.25091 | 40214 ft | 457 kts | 310° |
| 2026-04-24 13:26 | 37.18912 | 122.18845 | 40210 ft | 448 kts | 295° |
| 2026-04-24 13:26 | 37.21300 | 122.11685 | 40208 ft | 444 kts | 287° |
| 2026-04-24 13:27 | 37.23237 | 122.04330 | 40202 ft | 444 kts | 285° |
| 2026-04-24 13:27 | 37.25101 | 121.96931 | 40199 ft | 445 kts | 285° |
| 2026-04-24 13:28 | 37.26968 | 121.89586 | 40197 ft | 445 kts | 285° |
| 2026-04-24 13:28 | 37.28862 | 121.82194 | 40191 ft | 445 kts | 285° |
| 2026-04-24 13:29 | 37.30760 | 121.74790 | 40195 ft | 445 kts | 285° |
| 2026-04-24 13:29 | 37.32655 | 121.67381 | 40195 ft | 445 kts | 285° |
| 2026-04-24 13:30 | 37.34532 | 121.60019 | 40192 ft | 445 kts | 285° |
| 2026-04-24 13:30 | 37.36416 | 121.52600 | 40191 ft | 445 kts | 285° |
| 2026-04-24 13:31 | 37.38296 | 121.45180 | 40187 ft | 446 kts | 285° |
| 2026-04-24 13:31 | 37.40173 | 121.37748 | 40180 ft | 446 kts | 285° |
| 2026-04-24 13:32 | 37.42034 | 121.30357 | 40180 ft | 446 kts | 285° |
| 2026-04-24 13:32 | 37.43902 | 121.22917 | 40178 ft | 446 kts | 285° |
| 2026-04-24 13:33 | 37.45788 | 121.15474 | 40178 ft | 447 kts | 287° |
| 2026-04-24 13:33 | 37.48071 | 121.08173 | 40172 ft | 448 kts | 290° |
| 2026-04-24 13:34 | 37.50477 | 121.00983 | 40173 ft | 449 kts | 290° |
| 2026-04-24 13:34 | 37.52849 | 120.93718 | 40159 ft | 448 kts | 289° |
| 2026-04-24 13:35 | 37.55172 | 120.86422 | 40156 ft | 449 kts | 289° |
| 2026-04-24 13:35 | 37.57479 | 120.79106 | 40156 ft | 449 kts | 289° |
| 2026-04-24 13:36 | 37.59781 | 120.71845 | 40151 ft | 449 kts | 290° |
| 2026-04-24 13:36 | 37.62176 | 120.64570 | 40148 ft | 449 kts | 290° |
| 2026-04-24 13:37 | 37.64585 | 120.57293 | 40146 ft | 449 kts | 290° |
| 2026-04-24 13:37 | 37.67455 | 120.50258 | 40136 ft | 452 kts | 296° |
| 2026-04-24 13:38 | 37.70564 | 120.43367 | 40134 ft | 452 kts | 297° |
| 2026-04-24 13:38 | 37.73691 | 120.36535 | 40138 ft | 452 kts | 297° |
| 2026-04-24 13:39 | 37.76837 | 120.29643 | 40134 ft | 453 kts | 297° |
| 2026-04-24 13:39 | 37.79973 | 120.22739 | 40126 ft | 453 kts | 297° |
| 2026-04-24 13:40 | 37.83103 | 120.15824 | 40123 ft | 453 kts | 297° |
| 2026-04-24 13:40 | 37.86205 | 120.08953 | 40126 ft | 453 kts | 297° |
| 2026-04-24 13:41 | 37.89330 | 120.02020 | 40123 ft | 454 kts | 297° |
| 2026-04-24 13:41 | 37.92452 | 119.95078 | 40123 ft | 454 kts | 297° |
| 2026-04-24 13:42 | 37.95571 | 119.88129 | 40121 ft | 454 kts | 297° |
| 2026-04-24 13:42 | 37.98666 | 119.81217 | 40139 ft | 454 kts | 297° |
| 2026-04-24 13:43 | 38.01778 | 119.74252 | 40118 ft | 454 kts | 297° |
| 2026-04-24 13:43 | 38.04886 | 119.67281 | 40121 ft | 454 kts | 297° |
| 2026-04-24 13:44 | 38.07991 | 119.60301 | 40119 ft | 454 kts | 297° |
| 2026-04-24 13:44 | 38.11012 | 119.53269 | 40128 ft | 453 kts | 292° |
| 2026-04-24 13:45 | 38.13511 | 119.45983 | 40122 ft | 453 kts | 291° |
| 2026-04-24 13:45 | 38.15928 | 119.38587 | 40123 ft | 453 kts | 290° |
| 2026-04-24 13:46 | 38.18323 | 119.31172 | 40122 ft | 453 kts | 290° |
| 2026-04-24 13:46 | 38.20718 | 119.23759 | 40111 ft | 453 kts | 291° |
| 2026-04-24 13:47 | 38.23101 | 119.16384 | 40108 ft | 454 kts | 291° |
| 2026-04-24 13:47 | 38.25500 | 119.08948 | 40112 ft | 454 kts | 291° |
| 2026-04-24 13:48 | 38.26697 | 119.05230 | 39982 ft | 454 kts | 291° |
| 2026-04-24 13:48 | 38.27889 | 119.01523 | 39747 ft | 452 kts | 291° |
| 2026-04-24 13:48 | 38.29079 | 118.97818 | 39513 ft | 452 kts | 291° |
| 2026-04-24 13:48 | 38.30270 | 118.94103 | 39292 ft | 453 kts | 291° |
| 2026-04-24 13:49 | 38.31458 | 118.90394 | 39020 ft | 452 kts | 291° |
| 2026-04-24 13:49 | 38.32640 | 118.86697 | 38464 ft | 450 kts | 291° |
| 2026-04-24 13:49 | 38.33819 | 118.83005 | 37757 ft | 450 kts | 291° |
| 2026-04-24 13:49 | 38.34979 | 118.79370 | 37125 ft | 449 kts | 291° |
| 2026-04-24 13:50 | 38.36153 | 118.75688 | 36455 ft | 448 kts | 290° |
| 2026-04-24 13:50 | 38.37328 | 118.72013 | 35794 ft | 448 kts | 290° |
| 2026-04-24 13:50 | 38.38505 | 118.68334 | 35084 ft | 449 kts | 290° |
| 2026-04-24 13:50 | 38.39686 | 118.64630 | 34293 ft | 453 kts | 291° |
| 2026-04-24 13:51 | 38.40875 | 118.60898 | 33409 ft | 456 kts | 291° |
| 2026-04-24 13:51 | 38.42064 | 118.57161 | 32796 ft | 452 kts | 291° |
| 2026-04-24 13:51 | 38.43241 | 118.53462 | 32246 ft | 448 kts | 291° |
| 2026-04-24 13:51 | 38.44390 | 118.49846 | 31679 ft | 444 kts | 291° |
| 2026-04-24 13:52 | 38.45544 | 118.46207 | 31112 ft | 441 kts | 291° |
| 2026-04-24 13:52 | 38.46256 | 118.43959 | 30754 ft | 439 kts | 291° |
| 2026-04-24 13:52 | 38.47445 | 118.40201 | 30156 ft | 436 kts | 291° |
| 2026-04-24 13:52 | 38.48576 | 118.36631 | 29554 ft | 433 kts | 291° |
| 2026-04-24 13:53 | 38.49692 | 118.33088 | 28981 ft | 428 kts | 292° |
| 2026-04-24 13:53 | 38.50795 | 118.29579 | 28457 ft | 423 kts | 292° |
| 2026-04-24 13:53 | 38.51884 | 118.26113 | 27894 ft | 419 kts | 292° |
| 2026-04-24 13:53 | 38.52963 | 118.22678 | 27359 ft | 415 kts | 292° |
| 2026-04-24 13:54 | 38.54030 | 118.19276 | 26822 ft | 411 kts | 292° |
| 2026-04-24 13:54 | 38.55074 | 118.15943 | 26293 ft | 408 kts | 292° |
| 2026-04-24 13:54 | 38.56121 | 118.12595 | 25756 ft | 405 kts | 292° |
| 2026-04-24 13:54 | 38.57162 | 118.09266 | 25220 ft | 402 kts | 292° |
| 2026-04-24 13:55 | 38.58194 | 118.05961 | 24671 ft | 399 kts | 292° |
| 2026-04-24 13:55 | 38.59221 | 118.02671 | 24132 ft | 397 kts | 293° |
| 2026-04-24 13:55 | 38.60301 | 117.99434 | 23601 ft | 395 kts | 295° |
| 2026-04-24 13:55 | 38.61436 | 117.96246 | 22994 ft | 393 kts | 295° |
| 2026-04-24 13:56 | 38.62563 | 117.93083 | 22448 ft | 389 kts | 295° |
| 2026-04-24 13:56 | 38.63676 | 117.89938 | 21894 ft | 386 kts | 295° |
| 2026-04-24 13:56 | 38.64759 | 117.86861 | 21356 ft | 384 kts | 295° |
| 2026-04-24 13:56 | 38.65848 | 117.83751 | 20804 ft | 382 kts | 295° |
| 2026-04-24 13:57 | 38.66928 | 117.80659 | 20258 ft | 380 kts | 294° |
| 2026-04-24 13:57 | 38.68003 | 117.77577 | 19693 ft | 379 kts | 294° |
| 2026-04-24 13:57 | 38.69073 | 117.74504 | 19143 ft | 377 kts | 294° |
| 2026-04-24 13:57 | 38.70138 | 117.71442 | 18581 ft | 377 kts | 294° |
| 2026-04-24 13:58 | 38.71202 | 117.68377 | 17978 ft | 376 kts | 294° |
| 2026-04-24 13:58 | 38.72262 | 117.65319 | 17411 ft | 374 kts | 293° |
| 2026-04-24 13:58 | 38.73297 | 117.62332 | 16856 ft | 371 kts | 293° |
| 2026-04-24 13:58 | 38.74336 | 117.59330 | 16306 ft | 367 kts | 293° |
| 2026-04-24 13:59 | 38.75365 | 117.56354 | 15757 ft | 364 kts | 293° |
| 2026-04-24 13:59 | 38.76384 | 117.53403 | 15221 ft | 361 kts | 293° |
| 2026-04-24 13:59 | 38.77397 | 117.50468 | 14688 ft | 358 kts | 293° |
| 2026-04-24 13:59 | 38.78400 | 117.47558 | 14147 ft | 356 kts | 292° |
| 2026-04-24 14:00 | 38.79396 | 117.44666 | 13590 ft | 353 kts | 292° |
| 2026-04-24 14:00 | 38.80383 | 117.41797 | 13036 ft | 350 kts | 292° |
| 2026-04-24 14:00 | 38.81358 | 117.38957 | 12506 ft | 346 kts | 292° |
| 2026-04-24 14:00 | 38.82323 | 117.36146 | 11985 ft | 343 kts | 292° |
| 2026-04-24 14:01 | 38.83281 | 117.33353 | 11466 ft | 341 kts | 292° |
| 2026-04-24 14:01 | 38.84211 | 117.30638 | 11188 ft | 330 kts | 292° |
| 2026-04-24 14:01 | 38.85125 | 117.27973 | 11071 ft | 315 kts | 292° |
| 2026-04-24 14:01 | 38.85974 | 117.25493 | 10937 ft | 301 kts | 292° |
| 2026-04-24 14:02 | 38.86794 | 117.23093 | 10794 ft | 288 kts | 292° |
| 2026-04-24 14:02 | 38.87585 | 117.20780 | 10620 ft | 280 kts | 292° |
| 2026-04-24 14:02 | 38.88359 | 117.18504 | 10314 ft | 278 kts | 292° |
| 2026-04-24 14:02 | 38.89133 | 117.16231 | 9979 ft | 280 kts | 292° |
| 2026-04-24 14:03 | 38.89922 | 117.13923 | 9607 ft | 283 kts | 292° |
| 2026-04-24 14:03 | 38.90711 | 117.11612 | 9220 ft | 282 kts | 292° |
| 2026-04-24 14:03 | 38.91493 | 117.09309 | 8837 ft | 280 kts | 292° |
| 2026-04-24 14:03 | 38.92256 | 117.07058 | 8460 ft | 277 kts | 292° |
| 2026-04-24 14:04 | 38.93022 | 117.04798 | 8108 ft | 276 kts | 292° |
| 2026-04-24 14:04 | 38.93788 | 117.02539 | 7755 ft | 276 kts | 291° |
| 2026-04-24 14:04 | 38.94549 | 117.00293 | 7374 ft | 274 kts | 292° |
| 2026-04-24 14:04 | 38.95315 | 116.98053 | 7022 ft | 273 kts | 293° |
| 2026-04-24 14:05 | 38.96204 | 116.95900 | 6663 ft | 273 kts | 297° |
| 2026-04-24 14:05 | 38.97129 | 116.93779 | 6315 ft | 271 kts | 297° |
| 2026-04-24 14:05 | 38.98056 | 116.91680 | 5960 ft | 270 kts | 297° |
| 2026-04-24 14:05 | 38.98985 | 116.89599 | 5594 ft | 267 kts | 297° |
| 2026-04-24 14:06 | 38.99909 | 116.87535 | 5271 ft | 266 kts | 298° |
| 2026-04-24 14:06 | 39.00829 | 116.85484 | 4920 ft | 265 kts | 298° |
| 2026-04-24 14:06 | 39.01753 | 116.83426 | 4562 ft | 266 kts | 298° |
| 2026-04-24 14:06 | 39.02676 | 116.81373 | 4285 ft | 264 kts | 297° |
| 2026-04-24 14:07 | 39.03580 | 116.79357 | 4054 ft | 264 kts | 298° |
| 2026-04-24 14:07 | 39.04497 | 116.77317 | 3898 ft | 263 kts | 297° |
| 2026-04-24 14:07 | 39.05408 | 116.75287 | 3872 ft | 262 kts | 297° |
| 2026-04-24 14:07 | 39.06317 | 116.73259 | 3869 ft | 262 kts | 298° |
| 2026-04-24 14:08 | 39.07223 | 116.71239 | 3634 ft | 257 kts | 297° |
| 2026-04-24 14:08 | 39.08096 | 116.69293 | 3492 ft | 245 kts | 297° |
| 2026-04-24 14:08 | 39.08930 | 116.67436 | 3366 ft | 234 kts | 297° |
| 2026-04-24 14:08 | 39.09726 | 116.65657 | 3238 ft | 227 kts | 297° |
| 2026-04-24 14:09 | 39.10511 | 116.63898 | 3114 ft | 226 kts | 297° |
| 2026-04-24 14:09 | 39.11294 | 116.62145 | 3001 ft | 226 kts | 296° |
| 2026-04-24 14:09 | 39.11911 | 116.60306 | 2965 ft | 223 kts | 280° |
| 2026-04-24 14:09 | 39.11983 | 116.58339 | 2974 ft | 220 kts | 263° |
| 2026-04-24 14:10 | 39.11880 | 116.57046 | 2971 ft | 219 kts | 261° |
| 2026-04-24 14:10 | 39.11622 | 116.54471 | 2971 ft | 219 kts | 261° |
| 2026-04-24 14:10 | 39.11461 | 116.52521 | 2967 ft | 220 kts | 266° |
| 2026-04-24 14:10 | 39.11721 | 116.50567 | 2973 ft | 226 kts | 290° |
| 2026-04-24 14:11 | 39.12681 | 116.48969 | 2970 ft | 231 kts | 320° |
| 2026-04-24 14:11 | 39.14165 | 116.48155 | 2982 ft | 237 kts | 346° |
| 2026-04-24 14:11 | 39.17472 | 116.47648 | 2968 ft | 241 kts | 351° |
| 2026-04-24 14:12 | 39.19129 | 116.47431 | 2968 ft | 239 kts | 351° |
| 2026-04-24 14:12 | 39.20778 | 116.47199 | 2969 ft | 239 kts | 350° |
| 2026-04-24 14:12 | 39.22407 | 116.46960 | 2968 ft | 239 kts | 350° |
| 2026-04-24 14:12 | 39.24018 | 116.46722 | 2962 ft | 225 kts | 350° |
| 2026-04-24 14:13 | 39.25518 | 116.46500 | 2961 ft | 209 kts | 349° |
| 2026-04-24 14:13 | 39.26940 | 116.46284 | 2969 ft | 204 kts | 349° |
| 2026-04-24 14:13 | 39.28349 | 116.46068 | 2971 ft | 202 kts | 349° |
| 2026-04-24 14:13 | 39.29692 | 116.45866 | 2987 ft | 186 kts | 349° |
| 2026-04-24 14:14 | 39.30946 | 116.45678 | 2980 ft | 174 kts | 349° |
| 2026-04-24 14:14 | 39.32112 | 116.45502 | 2958 ft | 167 kts | 348° |
| 2026-04-24 14:14 | 39.34394 | 116.45137 | 2562 ft | 165 kts | 348° |
| 2026-04-24 14:15 | 39.35534 | 116.44957 | 2333 ft | 166 kts | 348° |
| 2026-04-24 14:15 | 39.36682 | 116.44776 | 2110 ft | 166 kts | 347° |
| 2026-04-24 14:15 | 39.37833 | 116.44594 | 1883 ft | 167 kts | 348° |
| 2026-04-24 14:15 | 39.38986 | 116.44414 | 1670 ft | 167 kts | 348° |
| 2026-04-24 14:16 | 39.40119 | 116.44235 | 1441 ft | 166 kts | 348° |
| 2026-04-24 14:16 | 39.41256 | 116.44056 | 1227 ft | 163 kts | 348° |
| 2026-04-24 14:16 | 39.42349 | 116.43885 | 1014 ft | 154 kts | 348° |
| 2026-04-24 14:17 | 39.44374 | 116.43565 | 652 ft | 143 kts | 351° |
| 2026-04-24 14:17 | 39.45360 | 116.43416 | 472 ft | 143 kts | 352° |
| 2026-04-24 14:17 | 39.47316 | 116.43107 | 124 ft | 143 kts | 353° |
| 2026-04-24 14:18 | 39.48256 | 116.42962 | 104 ft | 119 kts | 354° |
| 2026-04-24 14:18 | 39.48895 | 116.42865 | 100 ft | 68 kts | 353° |
| 2026-04-24 14:18 | 39.49184 | 116.42818 | 104 ft | 18 kts | 353° |
| 2026-04-24 14:18 | 39.49310 | 116.42794 | 104 ft | 19 kts | 351° |
| 2026-04-24 14:19 | 39.49399 | 116.42758 | 106 ft | 22 kts | 341° |
| 2026-04-24 14:19 | 39.49593 | 116.42612 | 100 ft | 24 kts | 326° |
| 2026-04-24 14:19 | 39.49714 | 116.42521 | 97 ft | 2 kts | 341° |
| 2026-04-24 14:20 | 39.49730 | 116.42515 | 96 ft | 8 kts | 346° |
| 2026-04-24 14:20 | 39.49801 | 116.42500 | 94 ft | 12 kts | 354° |
| 2026-04-24 14:20 | 39.49894 | 116.42484 | 97 ft | 15 kts | 352° |
| 2026-04-24 14:20 | 39.50009 | 116.42467 | 94 ft | 17 kts | 354° |
| 2026-04-24 14:21 | 39.50134 | 116.42451 | 95 ft | 19 kts | 354° |
| 2026-04-24 14:21 | 39.50185 | 116.42431 | 95 ft | 2 kts | 295° |
| 2026-04-24 14:21 | 39.50202 | 116.42349 | 96 ft | 20 kts | 295° |
| 2026-04-24 14:21 | 39.50322 | 116.42303 | 94 ft | 20 kts | 352° |
| 2026-04-24 14:22 | 39.50468 | 116.42280 | 92 ft | 22 kts | 353° |
| 2026-04-24 14:22 | 39.50628 | 116.42256 | 92 ft | 23 kts | 353° |
| 2026-04-24 14:22 | 39.50824 | 116.42144 | 94 ft | 11 kts | 274° |
| 2026-04-24 14:23 | 39.50817 | 116.42043 | 92 ft | 12 kts | 262° |
| 2026-04-24 14:23 | 39.50777 | 116.41943 | 93 ft | 13 kts | 214° |
| 2026-04-24 14:23 | 39.50739 | 116.41848 | 94 ft | 12 kts | 280° |
| 2026-04-24 14:23 | 39.50750 | 116.41806 | 95 ft | 2 kts | 291° |
| 2026-04-24 14:24 | 39.50751 | 116.41803 | 95 ft | 0 kts | 291° |